createdAt,value
2019-02-03T00:00:31.440Z,13.5
2019-02-03T00:10:34.690Z,13.2
2019-02-03T00:20:36.638Z,13.6
2019-02-03T00:30:36.842Z,17.7
2019-02-03T00:40:58.245Z,13.7
2019-02-03T00:51:01.194Z,9
2019-02-03T01:01:03.428Z,7.9
2019-02-03T01:11:04.998Z,10.8
2019-02-03T01:21:07.803Z,6
2019-02-03T01:31:12.087Z,4.5
2019-02-03T01:41:14.370Z,4.1
2019-02-03T01:51:16.928Z,6.6
2019-02-03T02:01:18.709Z,3.7
2019-02-03T02:11:25.951Z,3.3
2019-02-03T02:21:28.099Z,3.5
2019-02-03T02:31:28.038Z,4.7
2019-02-03T02:41:44.603Z,6
2019-02-03T02:51:46.074Z,6.1
2019-02-03T03:01:48.795Z,4
2019-02-03T03:11:51.415Z,4.2
2019-02-03T03:21:51.474Z,4.9
2019-02-03T03:31:52.565Z,3.3
2019-02-03T03:42:03.818Z,4
2019-02-03T03:52:04.402Z,4.3
2019-02-03T04:02:04.229Z,2.4
2019-02-03T04:12:18.497Z,3.3
2019-02-03T04:22:19.467Z,2.9
2019-02-03T04:32:20.523Z,4.1
2019-02-03T04:42:29.536Z,5.1
2019-02-03T04:52:31.362Z,1.8
2019-02-03T05:02:34.565Z,3
2019-02-03T05:12:42.754Z,4.1
2019-02-03T05:22:43.022Z,3.2
2019-02-03T05:32:42.182Z,5.3
2019-02-03T05:42:56.772Z,5.1
2019-02-03T05:52:57.233Z,6.3
2019-02-03T06:02:57.518Z,3.6
2019-02-03T06:13:09.717Z,4
2019-02-03T06:23:11.389Z,4.9
2019-02-03T06:33:12.364Z,5.7
2019-02-03T06:43:19.850Z,6.2
2019-02-03T06:53:21.534Z,8.8
2019-02-03T07:03:23.954Z,10.2
2019-02-03T07:13:33.318Z,8.7
2019-02-03T07:23:34.680Z,6.7
2019-02-03T07:33:36.210Z,6.7
2019-02-03T07:43:43.783Z,6.2
2019-02-03T07:53:47.099Z,19.6
2019-02-03T08:03:49.573Z,5.4
2019-02-03T08:14:00.567Z,4.7
2019-02-03T08:24:00.514Z,6.6
2019-02-03T08:34:00.639Z,4.7
2019-02-03T08:44:09.221Z,6.5
2019-02-03T08:54:13.821Z,5.6
2019-02-03T09:04:32.728Z,5.6
2019-02-03T09:14:34.193Z,8.3
2019-02-03T09:24:34.420Z,5.1
2019-02-03T09:34:35.667Z,4.9
2019-02-03T09:44:41.084Z,4.6
2019-02-03T09:54:43.025Z,3.6
2019-02-03T10:04:45.921Z,6.4
2019-02-03T10:14:54.973Z,8.7
2019-02-03T10:24:58.737Z,34.2
2019-02-03T10:35:02.383Z,23
2019-02-03T10:45:06.347Z,48.7
2019-02-03T10:55:08.627Z,16.5
2019-02-03T11:05:24.015Z,5.3
2019-02-03T11:15:27.093Z,11.3
2019-02-03T11:25:36.674Z,5.1
2019-02-03T11:35:41.403Z,14.5
2019-02-03T11:45:42.812Z,16
2019-02-03T11:55:44.939Z,9.3
2019-02-03T12:05:50.421Z,9.5
2019-02-03T12:15:53.071Z,11
2019-02-03T12:25:55.687Z,10.6
2019-02-03T12:36:01.588Z,7.6
2019-02-03T12:46:04.230Z,11
2019-02-03T12:56:06.238Z,17.2
2019-02-03T13:06:09.758Z,23.9
2019-02-03T13:16:11.964Z,8.3
2019-02-03T13:26:16.404Z,14.4
2019-02-03T13:36:24.663Z,10.2
2019-02-03T13:46:36.809Z,8.4
2019-02-03T13:56:40.067Z,15.6
2019-02-03T14:06:41.215Z,15.2
2019-02-03T14:16:44.787Z,18
2019-02-03T14:26:43.923Z,27.9
2019-02-03T14:36:44.445Z,34.6
2019-02-03T14:46:46.049Z,15.1
2019-02-03T14:56:55.955Z,16.9
2019-02-03T15:06:56.703Z,44
2019-02-03T15:17:11.140Z,28.7
2019-02-03T15:27:11.213Z,20.1
2019-02-03T15:37:13.749Z,27.1
2019-02-03T15:47:14.309Z,18.8
2019-02-03T15:57:14.674Z,16
2019-02-03T16:07:14.925Z,16.5
2019-02-03T16:17:17.092Z,16.3
2019-02-03T16:27:18.772Z,20.2
2019-02-03T16:37:22.460Z,16.9
2019-02-03T16:47:23.365Z,19.4
2019-02-03T16:57:26.356Z,18.6
2019-02-03T17:07:28.272Z,21.5
2019-02-03T17:17:32.286Z,19.6
2019-02-03T17:27:34.714Z,16.1
2019-02-03T17:37:38.293Z,18.5
2019-02-03T17:47:51.946Z,28.3
2019-02-03T17:57:51.452Z,20.4
2019-02-03T18:07:51.207Z,23
2019-02-03T18:17:56.169Z,17.3
2019-02-03T18:28:05.352Z,20.8
2019-02-03T18:38:06.719Z,16.9
2019-02-03T18:48:09.071Z,18.5
2019-02-03T18:58:11.523Z,22.5
2019-02-03T19:08:17.128Z,22.8
2019-02-03T19:18:24.573Z,16.5
2019-02-03T19:28:28.591Z,19
2019-02-03T19:38:38.358Z,14.6
2019-02-03T19:48:41.663Z,19.1
2019-02-03T19:58:44.562Z,18.3
2019-02-03T20:08:46.501Z,17.9
2019-02-03T20:18:47.399Z,24.5
2019-02-03T20:28:52.636Z,20.7
2019-02-03T20:39:14.478Z,17.3
2019-02-03T20:49:21.852Z,12.3
2019-02-03T20:59:24.207Z,16.5
2019-02-03T21:09:26.030Z,15.9
2019-02-03T21:19:29.722Z,20.8
2019-02-03T21:29:30.846Z,15.3
2019-02-03T21:39:31.710Z,12.5
2019-02-03T21:49:36.842Z,13.8
2019-02-03T21:59:41.042Z,10.5
2019-02-03T22:09:43.788Z,22.7
2019-02-03T22:19:48.072Z,12.2
2019-02-03T22:29:50.996Z,16.3
2019-02-03T22:39:53.966Z,15.7
2019-02-03T22:49:57.706Z,13.9
2019-02-03T23:00:00.527Z,21.7
2019-02-03T23:10:02.277Z,17.5
2019-02-03T23:20:02.511Z,13.8
2019-02-03T23:30:08.266Z,11.9
2019-02-03T23:40:11.896Z,13.7
2019-02-03T23:50:18.259Z,15.7
